Terminal Aerodrome Forecast
Issued by NWS

Current Version | Previous Version | Text Only | Print | Product List | Glossary On
Versions: 1 2 3 4 5 6 7 8 9 10 11 12
000
FTUS44 KEPZ 242300 RRA
TAFLRU
TAF
KLRU 242337Z 2500/2524 28012G22KT P6SM FEW200
     FM250100 34015G25KT P6SM SKC
     FM251000 35010KT P6SM SKC
     FM251400 24006KT P6SM SKC
     FM252100 26006KT P6SM SKC=

USA.gov is the U.S. government's official web portal to all federal, state and local government web resources and services.